createdAt,value
2023-03-10T00:01:31.624Z,6.70
2023-03-10T00:04:01.130Z,6.70
2023-03-10T00:06:32.629Z,7.68
2023-03-10T00:08:59.879Z,7.63
2023-03-10T00:11:27.038Z,8.20
2023-03-10T00:13:53.992Z,9.10
2023-03-10T00:16:24.613Z,8.82
2023-03-10T00:18:52.500Z,9.48
2023-03-10T00:21:32.075Z,8.95
2023-03-10T00:27:11.938Z,8.70
2023-03-10T00:29:39.025Z,8.82
2023-03-10T00:32:08.257Z,8.05
2023-03-10T00:34:36.040Z,8.02
2023-03-10T00:40:18.273Z,7.00
2023-03-10T00:42:45.371Z,6.57
2023-03-10T00:45:12.156Z,6.60
2023-03-10T00:47:39.047Z,6.18
2023-03-10T00:50:06.347Z,6.22
2023-03-10T00:52:33.989Z,5.80
2023-03-10T00:55:01.161Z,6.70
2023-03-10T00:57:28.585Z,6.22
2023-03-10T00:59:55.578Z,6.72
2023-03-10T01:02:22.536Z,7.15
2023-03-10T01:04:50.106Z,6.65
2023-03-10T01:07:17.468Z,6.70
2023-03-10T01:09:44.513Z,7.05
2023-03-10T01:12:11.531Z,6.57
2023-03-10T01:14:38.373Z,7.32
2023-03-10T01:17:05.631Z,6.90
2023-03-10T01:19:32.827Z,7.95
2023-03-10T01:22:01.244Z,7.65
2023-03-10T01:24:28.154Z,7.80
2023-03-10T01:26:55.153Z,7.70
2023-03-10T01:29:22.055Z,6.78
2023-03-10T01:31:49.213Z,6.75
2023-03-10T01:34:16.182Z,7.25
2023-03-10T01:36:43.285Z,7.20
2023-03-10T01:39:10.243Z,6.80
2023-03-10T01:41:41.832Z,7.18
2023-03-10T01:46:54.844Z,6.57
2023-03-10T01:49:41.371Z,6.78
2023-03-10T01:52:11.490Z,6.47
2023-03-10T01:54:55.897Z,5.97
2023-03-10T01:57:28.145Z,6.03
2023-03-10T01:59:56.966Z,5.43
2023-03-10T02:02:25.379Z,5.43
2023-03-10T02:04:54.384Z,4.90
2023-03-10T02:07:26.517Z,5.35
2023-03-10T02:09:56.136Z,5.18
2023-03-10T02:12:23.667Z,6.03
2023-03-10T02:14:52.996Z,6.60
2023-03-10T02:17:23.202Z,5.78
2023-03-10T02:19:58.964Z,6.40
2023-03-10T02:22:26.867Z,5.57
2023-03-10T02:24:59.632Z,5.28
2023-03-10T02:27:29.942Z,5.47
2023-03-10T02:30:08.268Z,5.27
2023-03-10T02:32:41.135Z,5.38
2023-03-10T02:35:08.930Z,5.65
2023-03-10T02:37:42.691Z,5.28
2023-03-10T02:40:40.619Z,4.82
2023-03-10T02:43:22.382Z,5.45
2023-03-10T02:45:57.674Z,5.90
2023-03-10T02:48:37.903Z,6.13
2023-03-10T02:51:18.501Z,6.18
2023-03-10T02:53:45.650Z,5.00
2023-03-10T02:56:13.091Z,5.78
2023-03-10T02:58:42.641Z,6.32
2023-03-10T03:01:10.154Z,6.53
2023-03-10T03:03:41.212Z,6.57
2023-03-10T03:06:09.148Z,6.93
2023-03-10T03:08:36.218Z,6.70
2023-03-10T03:11:06.096Z,7.43
2023-03-10T03:13:33.275Z,6.20
2023-03-10T03:16:00.545Z,6.13
2023-03-10T03:18:27.489Z,6.28
2023-03-10T03:20:54.464Z,5.47
2023-03-10T03:23:21.595Z,5.07
2023-03-10T03:25:49.556Z,4.78
2023-03-10T03:28:19.108Z,5.13
2023-03-10T03:30:47.044Z,5.78
2023-03-10T03:33:14.709Z,5.60
2023-03-10T03:35:44.309Z,6.93
2023-03-10T03:38:11.374Z,5.70
2023-03-10T03:40:38.906Z,4.70
2023-03-10T03:43:08.070Z,5.07
2023-03-10T03:45:35.238Z,4.32
2023-03-10T03:48:02.495Z,4.22
2023-03-10T03:50:31.824Z,4.63
2023-03-10T03:53:04.792Z,4.72
2023-03-10T03:55:32.013Z,4.75
2023-03-10T03:57:59.578Z,5.05
2023-03-10T04:00:26.657Z,4.90
2023-03-10T04:03:00.720Z,5.57
2023-03-10T04:05:29.018Z,5.45
2023-03-10T04:07:56.124Z,4.63
2023-03-10T04:10:28.462Z,5.47
2023-03-10T04:12:56.014Z,5.85
2023-03-10T04:15:24.339Z,6.28
2023-03-10T04:17:51.604Z,8.57
2023-03-10T04:20:18.840Z,8.30
2023-03-10T04:22:49.131Z,8.75
2023-03-10T04:25:16.335Z,8.82
2023-03-10T04:27:43.265Z,8.38
2023-03-10T04:30:12.951Z,15.40
2023-03-10T04:32:42.259Z,13.68
2023-03-10T04:35:12.998Z,11.80
2023-03-10T04:37:41.646Z,11.30
2023-03-10T04:40:12.687Z,13.32
2023-03-10T04:42:40.872Z,15.60
2023-03-10T04:45:08.974Z,20.13
2023-03-10T04:47:36.144Z,19.77
2023-03-10T04:50:03.592Z,22.63
2023-03-10T04:52:30.695Z,19.65
2023-03-10T04:54:57.833Z,21.63
2023-03-10T04:57:24.727Z,15.82
2023-03-10T04:59:53.044Z,20.58
2023-03-10T05:02:20.816Z,14.80
2023-03-10T05:04:48.110Z,11.70
2023-03-10T05:07:15.125Z,11.18
2023-03-10T05:12:13.396Z,20.50
2023-03-10T05:14:40.970Z,24.92
2023-03-10T05:17:08.332Z,27.58
2023-03-10T05:19:36.014Z,21.98
2023-03-10T05:22:06.070Z,24.10
2023-03-10T05:24:34.722Z,22.52
2023-03-10T05:27:04.448Z,17.30
2023-03-10T05:29:32.276Z,17.73
2023-03-10T05:32:07.654Z,13.98
2023-03-10T05:34:38.434Z,12.00
2023-03-10T05:37:06.306Z,13.15
2023-03-10T05:39:33.999Z,12.23
2023-03-10T05:42:04.432Z,11.18
2023-03-10T05:44:33.919Z,11.73
2023-03-10T05:47:02.829Z,10.15
2023-03-10T05:49:30.883Z,11.38
2023-03-10T05:51:59.262Z,11.25
2023-03-10T05:54:26.966Z,12.02
2023-03-10T05:56:54.225Z,11.48
2023-03-10T05:59:26.202Z,11.43
2023-03-10T06:01:54.527Z,10.95
2023-03-10T06:04:21.801Z,12.93
2023-03-10T06:06:48.775Z,14.38
2023-03-10T06:09:15.884Z,11.60
2023-03-10T06:11:43.167Z,14.70
2023-03-10T06:14:10.736Z,16.55
2023-03-10T06:16:37.572Z,18.63
2023-03-10T06:19:04.632Z,19.60
2023-03-10T06:21:31.657Z,16.02
2023-03-10T06:23:59.403Z,17.00
2023-03-10T06:26:26.822Z,17.33
2023-03-10T06:28:53.751Z,16.13
2023-03-10T06:31:23.440Z,14.68
2023-03-10T06:33:50.553Z,13.15
2023-03-10T06:36:22.355Z,11.35
2023-03-10T06:38:49.927Z,13.10
2023-03-10T06:41:17.585Z,12.65
2023-03-10T06:43:44.777Z,11.77
2023-03-10T06:46:13.141Z,10.18
2023-03-10T06:48:42.232Z,9.30
2023-03-10T06:51:12.183Z,8.45
2023-03-10T06:53:39.257Z,6.00
2023-03-10T06:56:08.738Z,6.47
2023-03-10T06:58:37.182Z,3.40
2023-03-10T07:01:05.195Z,3.97
2023-03-10T07:03:32.290Z,3.53
2023-03-10T07:06:00.159Z,2.60
2023-03-10T07:08:28.962Z,3.25
2023-03-10T07:10:56.703Z,2.70
2023-03-10T07:13:24.345Z,2.20
2023-03-10T07:15:51.486Z,3.00
2023-03-10T07:18:18.392Z,2.88
2023-03-10T07:20:47.796Z,2.80
2023-03-10T07:23:15.345Z,2.72
2023-03-10T07:25:42.111Z,3.50
2023-03-10T07:28:09.490Z,3.60
2023-03-10T07:30:38.784Z,2.72
2023-03-10T07:33:06.106Z,3.25
2023-03-10T07:35:36.624Z,2.90
2023-03-10T07:38:04.545Z,2.72
2023-03-10T07:40:35.503Z,3.10
2023-03-10T07:43:03.392Z,2.97
2023-03-10T07:45:33.724Z,2.53
2023-03-10T07:48:01.107Z,3.35
2023-03-10T07:50:28.027Z,2.75
2023-03-10T07:52:56.221Z,2.50
2023-03-10T07:55:24.887Z,2.50
2023-03-10T07:57:52.030Z,2.13
2023-03-10T08:00:19.527Z,2.58
2023-03-10T08:02:46.493Z,2.33
2023-03-10T08:05:15.227Z,2.45
2023-03-10T08:07:43.711Z,1.40
2023-03-10T08:10:11.453Z,1.88
2023-03-10T08:12:39.343Z,0.98
2023-03-10T08:15:06.882Z,1.27
2023-03-10T08:17:33.927Z,1.20
2023-03-10T08:20:06.614Z,1.40
2023-03-10T08:22:33.598Z,1.42
2023-03-10T08:25:01.225Z,1.10
2023-03-10T08:27:29.227Z,1.30
2023-03-10T08:29:56.606Z,1.00
2023-03-10T08:32:23.890Z,0.73
2023-03-10T08:34:50.879Z,0.90
2023-03-10T08:37:18.184Z,1.00
2023-03-10T08:39:46.522Z,0.70
2023-03-10T08:42:14.424Z,1.38
2023-03-10T08:44:42.156Z,0.82
2023-03-10T08:47:09.486Z,0.80
2023-03-10T08:49:36.762Z,0.82
2023-03-10T08:52:04.298Z,0.68
2023-03-10T08:54:32.619Z,0.80
2023-03-10T08:57:00.807Z,0.90
2023-03-10T08:59:27.788Z,1.00
2023-03-10T09:01:54.927Z,0.90
2023-03-10T09:04:22.275Z,0.73
2023-03-10T09:06:49.049Z,0.95
2023-03-10T09:09:16.543Z,1.48
2023-03-10T09:11:43.721Z,0.90
2023-03-10T09:14:12.250Z,2.03
2023-03-10T09:16:40.413Z,1.00
2023-03-10T09:19:08.205Z,0.95
2023-03-10T09:21:35.634Z,1.30
2023-03-10T09:24:03.603Z,2.00
2023-03-10T09:26:33.864Z,1.92
2023-03-10T09:29:01.972Z,3.35
2023-03-10T09:31:35.109Z,2.70
2023-03-10T09:34:03.914Z,3.28
2023-03-10T09:36:30.824Z,2.25
2023-03-10T09:39:05.704Z,0.93
2023-03-10T09:42:05.953Z,0.75
2023-03-10T09:44:58.030Z,0.80
2023-03-10T09:48:05.090Z,1.00
2023-03-10T09:50:48.369Z,0.90
2023-03-10T09:53:36.821Z,0.63
2023-03-10T09:56:12.410Z,1.13
2023-03-10T09:58:56.886Z,0.82
2023-03-10T10:01:28.017Z,1.92
2023-03-10T10:04:00.011Z,1.20
2023-03-10T10:06:32.037Z,1.10
2023-03-10T10:09:07.277Z,1.02
2023-03-10T10:11:36.948Z,0.80
2023-03-10T10:14:15.910Z,1.10
2023-03-10T10:17:05.103Z,1.10
2023-03-10T10:19:34.888Z,1.00
2023-03-10T10:22:18.666Z,0.77
2023-03-10T10:24:56.869Z,0.85
2023-03-10T10:27:25.488Z,0.65
2023-03-10T10:29:54.271Z,0.90
2023-03-10T10:32:21.594Z,0.80
2023-03-10T10:34:51.149Z,0.70
2023-03-10T10:37:35.618Z,0.60
2023-03-10T10:40:23.509Z,0.68
2023-03-10T10:42:55.894Z,0.60
2023-03-10T10:45:30.672Z,0.73
2023-03-10T10:47:57.847Z,0.80
2023-03-10T10:50:30.976Z,0.70
2023-03-10T10:53:13.490Z,0.52
2023-03-10T10:55:45.544Z,0.60
2023-03-10T10:58:29.580Z,0.70
2023-03-10T11:01:04.034Z,0.50
2023-03-10T11:03:34.980Z,1.70
2023-03-10T11:06:13.899Z,0.80
2023-03-10T11:08:43.396Z,0.60
2023-03-10T11:11:38.645Z,0.80
2023-03-10T11:14:15.144Z,1.05
2023-03-10T11:16:52.335Z,3.25
2023-03-10T11:19:50.035Z,0.80
2023-03-10T11:22:16.911Z,0.90
2023-03-10T11:25:06.489Z,0.80
2023-03-10T11:27:59.433Z,1.20
2023-03-10T11:30:40.405Z,2.50
2023-03-10T11:33:50.767Z,1.08
2023-03-10T11:36:26.910Z,1.00
2023-03-10T11:39:14.644Z,1.02
2023-03-10T11:41:48.362Z,1.38
2023-03-10T11:44:38.722Z,1.17
2023-03-10T11:47:30.351Z,2.92
2023-03-10T11:52:33.295Z,1.63
2023-03-10T11:55:10.493Z,1.95
2023-03-10T11:57:46.178Z,1.13
2023-03-10T12:00:33.744Z,1.15
2023-03-10T12:03:17.186Z,2.25
2023-03-10T12:05:58.350Z,1.73
2023-03-10T12:08:30.365Z,0.98
2023-03-10T12:11:01.573Z,2.70
2023-03-10T12:16:06.243Z,3.95
2023-03-10T12:18:34.125Z,1.15
2023-03-10T12:21:14.795Z,1.13
2023-03-10T12:23:44.901Z,2.35
2023-03-10T12:26:12.052Z,2.25
2023-03-10T12:28:39.976Z,1.85
2023-03-10T12:31:07.064Z,1.88
2023-03-10T12:33:41.958Z,1.10
2023-03-10T12:36:31.975Z,1.02
2023-03-10T12:39:23.755Z,0.90
2023-03-10T12:41:53.207Z,1.30
2023-03-10T12:44:41.148Z,1.42
2023-03-10T12:47:08.422Z,2.03
2023-03-10T12:49:41.378Z,1.83
2023-03-10T12:52:21.782Z,1.17
2023-03-10T12:55:05.801Z,1.63
2023-03-10T12:57:41.586Z,1.17
2023-03-10T13:00:17.890Z,1.55
2023-03-10T13:03:00.581Z,1.67
2023-03-10T13:05:35.464Z,1.10
2023-03-10T13:08:17.476Z,2.00
2023-03-10T13:10:45.678Z,1.10
2023-03-10T13:13:17.299Z,1.58
2023-03-10T13:15:58.807Z,1.48
2023-03-10T13:18:25.887Z,1.40
2023-03-10T13:20:53.288Z,1.25
2023-03-10T13:23:35.235Z,1.25
2023-03-10T13:26:13.485Z,2.33
2023-03-10T13:28:50.722Z,3.95
2023-03-10T13:31:27.935Z,2.95
2023-03-10T13:33:56.068Z,1.05
2023-03-10T13:36:37.932Z,1.83
2023-03-10T13:39:10.801Z,1.50
2023-03-10T13:41:41.596Z,1.10
2023-03-10T13:44:26.937Z,1.83
2023-03-10T13:46:58.091Z,1.40
2023-03-10T13:49:35.342Z,1.30
2023-03-10T13:52:04.477Z,1.08
2023-03-10T13:54:33.987Z,1.38
2023-03-10T13:57:22.488Z,1.30
2023-03-10T13:59:50.424Z,1.77
2023-03-10T14:02:18.966Z,2.22
2023-03-10T14:04:51.914Z,2.80
2023-03-10T14:07:22.047Z,1.38
2023-03-10T14:10:10.264Z,2.03
2023-03-10T14:12:45.631Z,1.70
2023-03-10T14:15:15.386Z,1.90
2023-03-10T14:17:43.688Z,1.90
2023-03-10T14:20:12.457Z,1.80
2023-03-10T14:22:43.456Z,1.80
2023-03-10T14:25:16.621Z,2.40
2023-03-10T14:27:56.996Z,2.08
2023-03-10T14:30:34.647Z,1.77
2023-03-10T14:33:02.195Z,2.20
2023-03-10T14:35:30.420Z,3.15
2023-03-10T14:37:57.329Z,1.92
2023-03-10T14:40:25.710Z,3.28
2023-03-10T14:42:54.497Z,2.63
2023-03-10T14:45:29.961Z,2.35
2023-03-10T14:48:02.643Z,2.13
2023-03-10T14:50:31.008Z,2.17
2023-03-10T14:52:58.330Z,1.98
2023-03-10T14:55:25.248Z,3.42
2023-03-10T14:57:59.037Z,2.70
2023-03-10T15:00:28.739Z,2.47
2023-03-10T15:02:56.258Z,2.72
2023-03-10T15:05:34.617Z,3.40
2023-03-10T15:08:05.984Z,3.72
2023-03-10T15:10:37.040Z,4.40
2023-03-10T15:13:04.252Z,4.07
2023-03-10T15:15:38.449Z,3.08
2023-03-10T15:18:06.238Z,4.15
2023-03-10T15:20:33.470Z,3.03
2023-03-10T15:23:00.638Z,3.00
2023-03-10T15:25:27.622Z,3.00
2023-03-10T15:27:54.839Z,4.22
2023-03-10T15:30:32.470Z,3.00
2023-03-10T15:33:00.500Z,3.20
2023-03-10T15:35:29.398Z,7.88
2023-03-10T15:37:57.081Z,3.97
2023-03-10T15:40:29.810Z,3.47
2023-03-10T15:42:58.441Z,3.22
2023-03-10T15:45:28.810Z,2.92
2023-03-10T15:47:56.898Z,3.30
2023-03-10T15:50:24.158Z,4.95
2023-03-10T15:52:55.191Z,4.97
2023-03-10T15:55:23.163Z,4.70
2023-03-10T15:57:50.834Z,3.90
2023-03-10T16:00:20.363Z,4.65
2023-03-10T16:02:48.324Z,5.70
2023-03-10T16:05:15.550Z,6.00
2023-03-10T16:07:42.564Z,3.42
2023-03-10T16:10:11.628Z,3.85
2023-03-10T16:12:38.565Z,7.57
2023-03-10T16:15:05.903Z,5.03
2023-03-10T16:17:32.804Z,3.72
2023-03-10T16:20:07.137Z,4.53
2023-03-10T16:22:34.160Z,7.20
2023-03-10T16:25:01.042Z,4.35
2023-03-10T16:27:28.128Z,4.63
2023-03-10T16:29:55.059Z,3.42
2023-03-10T16:32:22.116Z,3.28
2023-03-10T16:34:49.057Z,5.78
2023-03-10T16:37:16.053Z,8.73
2023-03-10T16:39:43.622Z,6.63
2023-03-10T16:42:10.497Z,4.53
2023-03-10T16:44:37.408Z,7.78
2023-03-10T16:47:04.263Z,6.95
2023-03-10T16:49:32.436Z,3.22
2023-03-10T16:51:59.779Z,6.70
2023-03-10T16:54:26.724Z,2.67
2023-03-10T16:56:57.024Z,4.15
2023-03-10T16:59:25.227Z,3.42
2023-03-10T17:01:52.374Z,3.58
2023-03-10T17:04:48.839Z,4.65
2023-03-10T17:07:16.355Z,2.40
2023-03-10T17:09:43.310Z,2.55
2023-03-10T17:12:10.127Z,4.60
2023-03-10T17:14:36.989Z,2.90
2023-03-10T17:17:05.846Z,2.40
2023-03-10T17:19:34.367Z,3.70
2023-03-10T17:22:01.402Z,3.67
2023-03-10T17:24:28.286Z,4.38
2023-03-10T17:26:55.223Z,4.20
2023-03-10T17:29:22.334Z,6.32
2023-03-10T17:31:51.454Z,3.97
2023-03-10T17:34:19.501Z,4.28
2023-03-10T17:36:47.113Z,4.30
2023-03-10T17:39:20.722Z,3.90
2023-03-10T17:41:48.482Z,3.90
2023-03-10T17:44:15.996Z,3.83
2023-03-10T17:46:43.056Z,4.30
2023-03-10T17:49:12.504Z,3.50
2023-03-10T17:51:49.396Z,3.15
2023-03-10T17:54:22.206Z,2.63
2023-03-10T17:56:50.423Z,2.65
2023-03-10T17:59:17.356Z,3.47
2023-03-10T18:01:45.808Z,3.90
2023-03-10T18:04:13.078Z,3.38
2023-03-10T18:06:51.816Z,2.80
2023-03-10T18:09:18.704Z,3.90
2023-03-10T18:11:45.762Z,3.97
2023-03-10T18:14:12.508Z,5.63
2023-03-10T18:16:40.929Z,4.00
2023-03-10T18:19:10.525Z,3.80
2023-03-10T18:21:38.561Z,6.55
2023-03-10T18:24:06.585Z,8.45
2023-03-10T18:26:33.843Z,10.32
2023-03-10T18:29:00.988Z,4.75
2023-03-10T18:31:31.966Z,4.35
2023-03-10T18:34:00.097Z,4.55
2023-03-10T18:36:27.612Z,3.83
2023-03-10T18:38:54.767Z,4.45
2023-03-10T18:41:27.144Z,5.18
2023-03-10T18:43:54.098Z,4.45
2023-03-10T18:46:22.210Z,5.28
2023-03-10T18:48:55.506Z,4.78
2023-03-10T18:51:25.026Z,6.53
2023-03-10T18:53:52.206Z,8.00
2023-03-10T18:56:19.282Z,7.85
2023-03-10T18:58:46.217Z,6.10
2023-03-10T19:01:14.983Z,7.03
2023-03-10T19:03:42.530Z,10.02
2023-03-10T19:06:09.688Z,17.13
2023-03-10T19:08:38.674Z,18.15
2023-03-10T19:11:07.073Z,14.10
2023-03-10T19:13:35.114Z,13.48
2023-03-10T19:16:07.615Z,10.38
2023-03-10T19:18:35.917Z,8.20
2023-03-10T19:21:03.660Z,5.18
2023-03-10T19:23:30.701Z,4.70
2023-03-10T19:25:57.850Z,8.95
2023-03-10T19:28:24.918Z,7.15
2023-03-10T19:30:51.763Z,6.35
2023-03-10T19:33:18.952Z,3.50
2023-03-10T19:35:45.874Z,4.55
2023-03-10T19:38:12.973Z,7.32
2023-03-10T19:40:39.979Z,7.13
2023-03-10T19:43:07.185Z,5.95
2023-03-10T19:45:34.121Z,7.43
2023-03-10T19:48:01.219Z,8.27
2023-03-10T19:50:28.386Z,7.65
2023-03-10T19:52:55.531Z,7.80
2023-03-10T19:55:24.233Z,7.40
2023-03-10T19:57:53.309Z,6.88
2023-03-10T20:00:25.451Z,7.80
2023-03-10T20:02:55.449Z,8.32
2023-03-10T20:05:25.425Z,9.60
2023-03-10T20:07:53.203Z,10.90
2023-03-10T20:10:20.710Z,10.30
2023-03-10T20:12:47.729Z,10.38
2023-03-10T20:15:15.180Z,9.38
2023-03-10T20:17:41.962Z,10.70
2023-03-10T20:20:12.552Z,10.95
2023-03-10T20:22:41.421Z,11.38
2023-03-10T20:25:10.966Z,13.05
2023-03-10T20:27:38.330Z,12.35
2023-03-10T20:30:30.842Z,12.80
2023-03-10T20:32:59.738Z,12.82
2023-03-10T20:35:29.117Z,13.23
2023-03-10T20:37:56.170Z,16.70
2023-03-10T20:40:24.395Z,18.17
2023-03-10T20:42:53.143Z,17.17
2023-03-10T20:45:21.007Z,17.15
2023-03-10T20:47:48.507Z,17.85
2023-03-10T20:50:16.742Z,17.63
2023-03-10T20:52:44.166Z,18.55
2023-03-10T20:55:31.791Z,21.85
2023-03-10T20:58:00.902Z,17.60
2023-03-10T21:00:29.731Z,19.05
2023-03-10T21:02:57.501Z,19.63
2023-03-10T21:05:25.926Z,17.95
2023-03-10T21:07:53.620Z,18.35
2023-03-10T21:10:21.128Z,22.42
2023-03-10T21:12:48.293Z,19.92
2023-03-10T21:15:16.718Z,22.70
2023-03-10T21:17:44.217Z,22.13
2023-03-10T21:20:15.482Z,21.10
2023-03-10T21:25:15.191Z,14.70
2023-03-10T21:27:42.391Z,47.83
2023-03-10T21:30:12.767Z,41.13
2023-03-10T21:32:39.932Z,33.57
2023-03-10T21:35:07.253Z,37.25
2023-03-10T21:37:35.277Z,20.17
2023-03-10T21:40:05.459Z,26.48
2023-03-10T21:42:32.466Z,25.08
2023-03-10T21:44:59.336Z,27.27
2023-03-10T21:47:26.301Z,28.17
2023-03-10T21:49:53.176Z,22.42
2023-03-10T21:52:20.229Z,24.45
2023-03-10T21:54:47.254Z,23.63
2023-03-10T21:57:14.404Z,24.08
2023-03-10T21:59:41.380Z,26.52
2023-03-10T22:02:12.426Z,33.50
2023-03-10T22:04:39.355Z,33.45
2023-03-10T22:07:06.495Z,27.58
2023-03-10T22:09:33.328Z,22.17
2023-03-10T22:12:00.551Z,23.95
2023-03-10T22:14:27.737Z,29.42
2023-03-10T22:16:54.695Z,30.88
2023-03-10T22:19:21.549Z,31.77
2023-03-10T22:21:48.451Z,28.73
2023-03-10T22:24:15.454Z,29.15
2023-03-10T22:26:42.265Z,27.13
2023-03-10T22:29:09.533Z,27.50
2023-03-10T22:31:36.471Z,32.70
2023-03-10T22:34:03.388Z,34.20
2023-03-10T22:36:30.576Z,28.85
2023-03-10T22:38:57.578Z,26.35
2023-03-10T22:41:25.790Z,28.08
2023-03-10T22:43:52.716Z,24.52
2023-03-10T22:46:20.346Z,21.90
2023-03-10T22:48:47.486Z,23.15
2023-03-10T22:51:17.297Z,22.63
2023-03-10T22:53:47.150Z,19.42
2023-03-10T22:56:13.972Z,17.38
2023-03-10T22:58:40.959Z,13.05
2023-03-10T23:01:08.235Z,10.93
2023-03-10T23:03:35.534Z,10.48
2023-03-10T23:06:06.678Z,8.63
2023-03-10T23:08:37.571Z,10.00
2023-03-10T23:11:11.980Z,12.60
2023-03-10T23:13:39.533Z,13.35
2023-03-10T23:16:07.232Z,13.27
2023-03-10T23:18:34.348Z,9.93
2023-03-10T23:21:01.780Z,10.30
2023-03-10T23:23:28.799Z,10.38
2023-03-10T23:25:55.772Z,9.50
2023-03-10T23:28:22.805Z,11.10
2023-03-10T23:30:51.417Z,10.13
2023-03-10T23:33:22.340Z,11.00
2023-03-10T23:35:54.332Z,10.10
2023-03-10T23:38:23.699Z,10.00
2023-03-10T23:40:51.301Z,9.90
2023-03-10T23:43:18.662Z,9.75
2023-03-10T23:45:46.304Z,9.98
2023-03-10T23:48:16.183Z,10.00
2023-03-10T23:50:44.934Z,9.45
2023-03-10T23:53:13.807Z,11.35
2023-03-10T23:55:43.555Z,11.68
2023-03-10T23:58:11.393Z,10.48
